createdAt,value
2022-11-01T00:00:19.407Z,21.49
2022-11-01T00:00:50.790Z,21.48
2022-11-01T00:01:22.196Z,21.48
2022-11-01T00:01:53.783Z,21.48
2022-11-01T00:02:25.313Z,21.49
2022-11-01T00:02:56.731Z,21.49
2022-11-01T00:03:28.122Z,21.48
2022-11-01T00:03:59.515Z,21.49
2022-11-01T00:04:30.913Z,21.48
2022-11-01T00:05:02.299Z,21.48
2022-11-01T00:05:33.771Z,21.49
2022-11-01T00:06:05.185Z,21.48
2022-11-01T00:06:36.570Z,21.49
2022-11-01T00:07:07.950Z,21.48
2022-11-01T00:07:39.340Z,21.48
2022-11-01T00:08:10.731Z,21.47
2022-11-01T00:08:42.114Z,21.48
2022-11-01T00:09:13.506Z,21.48
2022-11-01T00:09:44.917Z,21.47
2022-11-01T00:10:48.763Z,21.47
2022-11-01T00:11:20.150Z,21.46
2022-11-01T00:11:51.558Z,21.45
2022-11-01T00:12:22.946Z,21.46
2022-11-01T00:12:54.399Z,21.44
2022-11-01T00:13:25.802Z,21.46
2022-11-01T00:13:57.190Z,21.46
2022-11-01T00:14:28.595Z,21.45
2022-11-01T00:14:59.979Z,21.46
2022-11-01T00:15:31.377Z,21.45
2022-11-01T00:16:02.923Z,21.45
2022-11-01T00:16:34.323Z,21.44
2022-11-01T00:17:05.715Z,21.46
2022-11-01T00:17:37.102Z,21.44
2022-11-01T00:18:08.486Z,21.44
2022-11-01T00:18:39.947Z,21.44
2022-11-01T00:19:11.331Z,21.45
2022-11-01T00:19:42.715Z,21.45
2022-11-01T00:20:14.102Z,21.44
2022-11-01T00:20:45.505Z,21.44
2022-11-01T00:21:16.969Z,21.44
2022-11-01T00:21:48.353Z,21.43
2022-11-01T00:22:19.733Z,21.44
2022-11-01T00:22:51.124Z,21.42
2022-11-01T00:23:22.514Z,21.42
2022-11-01T00:23:53.898Z,21.43
2022-11-01T00:24:25.293Z,21.42
2022-11-01T00:24:56.697Z,21.41
2022-11-01T00:25:28.086Z,21.42
2022-11-01T00:25:59.489Z,21.42
2022-11-01T00:26:31.046Z,21.40
2022-11-01T00:27:02.436Z,21.40
2022-11-01T00:27:33.821Z,21.40
2022-11-01T00:28:05.390Z,21.41
2022-11-01T00:28:36.935Z,21.41
2022-11-01T00:29:08.335Z,21.41
2022-11-01T00:29:39.732Z,21.41
2022-11-01T00:30:11.118Z,21.41
2022-11-01T00:30:42.660Z,21.39
2022-11-01T00:31:14.107Z,21.40
2022-11-01T00:31:45.624Z,21.40
2022-11-01T00:32:17.065Z,21.40
2022-11-01T00:32:48.454Z,21.38
2022-11-01T00:33:19.843Z,21.38
2022-11-01T00:33:51.233Z,21.38
2022-11-01T00:34:22.621Z,21.37
2022-11-01T00:34:54.162Z,21.37
2022-11-01T00:35:25.549Z,21.38
2022-11-01T00:35:56.935Z,21.37
2022-11-01T00:36:28.341Z,21.37
2022-11-01T00:36:59.754Z,21.37
2022-11-01T00:37:31.144Z,21.37
2022-11-01T00:38:02.784Z,21.35
2022-11-01T00:38:34.310Z,21.36
2022-11-01T00:39:05.699Z,21.35
2022-11-01T00:39:37.087Z,21.36
2022-11-01T00:40:08.476Z,21.35
2022-11-01T00:40:39.921Z,21.35
2022-11-01T00:41:11.307Z,21.35
2022-11-01T00:41:42.724Z,21.34
2022-11-01T00:42:14.227Z,21.34
2022-11-01T00:42:45.632Z,21.33
2022-11-01T00:43:17.092Z,21.33
2022-11-01T00:43:48.477Z,21.33
2022-11-01T00:44:19.866Z,21.33
2022-11-01T00:44:51.260Z,21.32
2022-11-01T00:45:22.705Z,21.31
2022-11-01T00:45:54.101Z,21.31
2022-11-01T00:46:25.736Z,21.31
2022-11-01T00:46:57.183Z,21.31
2022-11-01T00:47:28.592Z,21.30
2022-11-01T00:48:00.244Z,21.30
2022-11-01T00:48:31.910Z,21.30
2022-11-01T00:49:03.302Z,21.29
2022-11-01T00:49:34.711Z,21.30
2022-11-01T00:50:06.101Z,21.28
2022-11-01T00:50:37.503Z,21.28
2022-11-01T00:51:08.905Z,21.26
2022-11-01T00:51:40.305Z,21.27
2022-11-01T00:52:11.709Z,21.26
2022-11-01T00:52:43.187Z,21.24
2022-11-01T00:53:14.571Z,21.25
2022-11-01T00:53:45.963Z,21.24
2022-11-01T00:54:17.352Z,21.25
2022-11-01T00:54:48.762Z,21.26
2022-11-01T00:55:20.227Z,21.25
2022-11-01T00:55:51.630Z,21.25
2022-11-01T00:56:23.035Z,21.25
2022-11-01T00:56:54.426Z,21.24
2022-11-01T00:57:25.814Z,21.23
2022-11-01T00:57:57.358Z,21.23
2022-11-01T00:58:28.799Z,21.23
2022-11-01T00:59:00.206Z,21.23
2022-11-01T00:59:31.596Z,21.23
2022-11-01T01:00:02.989Z,21.22
2022-11-01T01:00:34.375Z,21.22
2022-11-01T01:01:05.887Z,21.21
2022-11-01T01:01:37.500Z,21.21
2022-11-01T01:02:09.088Z,21.22
2022-11-01T01:02:40.580Z,21.20
2022-11-01T01:03:12.101Z,21.21
2022-11-01T01:03:43.486Z,21.20
2022-11-01T01:04:14.869Z,21.21
2022-11-01T01:04:46.282Z,21.21
2022-11-01T01:05:17.690Z,21.18
2022-11-01T01:05:49.095Z,21.18
2022-11-01T01:06:20.486Z,21.19
2022-11-01T01:06:51.872Z,21.20
2022-11-01T01:07:23.259Z,21.19
2022-11-01T01:07:54.650Z,21.19
2022-11-01T01:08:26.247Z,21.19
2022-11-01T01:08:57.663Z,21.19
2022-11-01T01:09:29.101Z,21.19
2022-11-01T01:10:00.549Z,21.17
2022-11-01T01:10:31.942Z,21.17
2022-11-01T01:11:03.327Z,21.18
2022-11-01T01:11:34.791Z,21.17
2022-11-01T01:12:06.178Z,21.18
2022-11-01T01:12:37.564Z,21.17
2022-11-01T01:13:08.952Z,21.15
2022-11-01T01:13:40.431Z,21.16
2022-11-01T01:14:11.827Z,21.17
2022-11-01T01:14:43.235Z,21.16
2022-11-01T01:15:14.623Z,21.16
2022-11-01T01:15:46.069Z,21.16
2022-11-01T01:16:17.445Z,21.15
2022-11-01T01:16:48.829Z,21.15
2022-11-01T01:17:20.233Z,21.14
2022-11-01T01:17:51.628Z,21.11
2022-11-01T01:18:23.026Z,21.13
2022-11-01T01:18:54.469Z,21.13
2022-11-01T01:19:25.874Z,21.11
2022-11-01T01:19:57.282Z,21.12
2022-11-01T01:20:28.671Z,21.12
2022-11-01T01:21:00.076Z,21.12
2022-11-01T01:21:31.471Z,21.11
2022-11-01T01:22:02.872Z,21.11
2022-11-01T01:22:34.298Z,21.11
2022-11-01T01:23:05.690Z,21.10
2022-11-01T01:23:37.078Z,21.11
2022-11-01T01:24:08.557Z,21.10
2022-11-01T01:24:39.944Z,21.09
2022-11-01T01:25:11.331Z,21.11
2022-11-01T01:25:42.742Z,21.11
2022-11-01T01:26:14.137Z,21.10
2022-11-01T01:26:45.523Z,21.07
2022-11-01T01:27:16.921Z,21.09
2022-11-01T01:27:48.335Z,21.08
2022-11-01T01:28:19.719Z,21.07
2022-11-01T01:28:51.181Z,21.06
2022-11-01T01:29:22.612Z,21.05
2022-11-01T01:29:53.999Z,21.06
2022-11-01T01:30:25.387Z,21.07
2022-11-01T01:30:56.839Z,21.05
2022-11-01T01:31:28.223Z,21.06
2022-11-01T01:31:59.662Z,21.06
2022-11-01T01:32:31.055Z,21.07
2022-11-01T01:33:02.509Z,21.05
2022-11-01T01:33:33.928Z,21.05
2022-11-01T01:34:05.327Z,21.05
2022-11-01T01:34:36.791Z,21.05
2022-11-01T01:35:08.174Z,21.05
2022-11-01T01:35:39.636Z,21.05
2022-11-01T01:36:11.021Z,21.05
2022-11-01T01:36:42.412Z,21.04
2022-11-01T01:37:13.816Z,21.04
2022-11-01T01:37:45.208Z,21.04
2022-11-01T01:38:16.599Z,21.04
2022-11-01T01:38:47.986Z,21.04
2022-11-01T01:39:19.518Z,21.04
2022-11-01T01:39:50.918Z,21.03
2022-11-01T01:40:22.302Z,21.03
2022-11-01T01:40:53.713Z,21.03
2022-11-01T01:41:25.104Z,21.03
2022-11-01T01:41:56.496Z,21.03
2022-11-01T01:42:27.893Z,21.03
2022-11-01T01:42:59.273Z,21.03
2022-11-01T01:43:30.659Z,21.03
2022-11-01T01:44:02.046Z,21.04
2022-11-01T01:44:33.553Z,21.04
2022-11-01T01:45:04.953Z,21.03
2022-11-01T01:45:36.339Z,21.04
2022-11-01T01:46:07.743Z,21.03
2022-11-01T01:46:39.146Z,21.03
2022-11-01T01:47:10.556Z,21.03
2022-11-01T01:47:41.948Z,21.03
2022-11-01T01:48:13.353Z,21.03
2022-11-01T01:48:44.762Z,21.03
2022-11-01T01:49:16.170Z,21.03
2022-11-01T01:49:47.600Z,21.04
2022-11-01T01:50:19.019Z,21.03
2022-11-01T01:50:50.410Z,21.03
2022-11-01T01:51:21.790Z,21.03
2022-11-01T01:51:53.179Z,21.03
2022-11-01T01:52:24.583Z,21.02
2022-11-01T01:52:55.992Z,21.02
2022-11-01T01:53:27.398Z,21.02
2022-11-01T01:53:58.870Z,21.03
2022-11-01T01:54:30.299Z,21.02
2022-11-01T01:55:01.795Z,21.03
2022-11-01T01:55:33.185Z,21.01
2022-11-01T01:56:04.583Z,21.02
2022-11-01T01:56:35.976Z,21.01
2022-11-01T01:57:07.371Z,21.01
2022-11-01T01:57:38.762Z,21.01
2022-11-01T01:58:10.148Z,21.00
2022-11-01T01:58:41.611Z,21.01
2022-11-01T01:59:13.017Z,21.01
2022-11-01T01:59:44.412Z,21.00
2022-11-01T02:00:15.837Z,21.00
2022-11-01T02:00:47.458Z,20.99
2022-11-01T02:01:19.020Z,20.99
2022-11-01T02:01:50.523Z,20.99
2022-11-01T02:02:22.072Z,20.98
2022-11-01T02:02:53.493Z,20.99
2022-11-01T02:03:24.980Z,20.98
2022-11-01T02:03:56.377Z,20.98
2022-11-01T02:04:27.783Z,20.98
2022-11-01T02:04:59.183Z,20.97
2022-11-01T02:05:30.636Z,20.97
2022-11-01T02:06:02.045Z,20.97
2022-11-01T02:06:33.432Z,20.96
2022-11-01T02:07:04.838Z,20.97
2022-11-01T02:07:36.303Z,20.98
2022-11-01T02:08:07.688Z,20.97
2022-11-01T02:08:39.075Z,20.96
2022-11-01T02:09:10.455Z,20.96
2022-11-01T02:09:41.834Z,20.97
2022-11-01T02:10:13.263Z,20.96
2022-11-01T02:10:44.651Z,20.96
2022-11-01T02:11:16.044Z,20.97
2022-11-01T02:11:47.439Z,20.96
2022-11-01T02:12:18.821Z,20.95
2022-11-01T02:12:50.230Z,20.96
2022-11-01T02:13:21.615Z,20.95
2022-11-01T02:13:53.004Z,20.94
2022-11-01T02:14:24.441Z,20.94
2022-11-01T02:14:55.827Z,20.94
2022-11-01T02:15:27.298Z,20.94
2022-11-01T02:15:58.683Z,20.94
2022-11-01T02:16:30.096Z,20.94
2022-11-01T02:17:05.518Z,20.95
2022-11-01T02:17:39.921Z,20.92
2022-11-01T02:18:11.306Z,20.93
2022-11-01T02:18:42.694Z,20.94
2022-11-01T02:19:14.083Z,20.94
2022-11-01T02:19:45.562Z,20.93
2022-11-01T02:20:17.019Z,20.94
2022-11-01T02:20:48.579Z,20.94
2022-11-01T02:21:19.970Z,20.93
2022-11-01T02:21:51.354Z,20.93
2022-11-01T02:22:22.761Z,20.93
2022-11-01T02:22:54.148Z,20.93
2022-11-01T02:23:25.567Z,20.93
2022-11-01T02:23:56.949Z,20.93
2022-11-01T02:24:28.355Z,20.93
2022-11-01T02:24:59.762Z,20.93
2022-11-01T02:25:31.171Z,20.92
2022-11-01T02:26:02.691Z,20.92
2022-11-01T02:26:34.097Z,20.92
2022-11-01T02:27:05.484Z,20.92
2022-11-01T02:27:36.876Z,20.92
2022-11-01T02:28:08.268Z,20.91
2022-11-01T02:28:39.653Z,20.91
2022-11-01T02:29:11.048Z,20.91
2022-11-01T02:29:42.440Z,20.91
2022-11-01T02:30:13.837Z,20.90
2022-11-01T02:30:45.250Z,20.91
2022-11-01T02:31:16.753Z,20.91
2022-11-01T02:31:48.141Z,20.90
2022-11-01T02:32:19.546Z,20.89
2022-11-01T02:32:51.077Z,20.88
2022-11-01T02:33:22.470Z,20.89
2022-11-01T02:33:53.857Z,20.89
2022-11-01T02:34:25.248Z,20.89
2022-11-01T02:34:56.636Z,20.88
2022-11-01T02:35:28.041Z,20.89
2022-11-01T02:35:59.422Z,20.88
2022-11-01T02:36:30.823Z,20.88
2022-11-01T02:37:02.225Z,20.87
2022-11-01T02:37:33.617Z,20.87
2022-11-01T02:38:05.012Z,20.87
2022-11-01T02:38:36.399Z,20.87
2022-11-01T02:39:07.826Z,20.88
2022-11-01T02:39:39.239Z,20.88
2022-11-01T02:40:10.626Z,20.87
2022-11-01T02:40:42.015Z,20.87
2022-11-01T02:41:13.430Z,20.87
2022-11-01T02:41:44.913Z,20.87
2022-11-01T02:42:16.362Z,20.87
2022-11-01T02:42:47.757Z,20.87
2022-11-01T02:43:19.147Z,20.86
2022-11-01T02:43:50.550Z,20.87
2022-11-01T02:44:21.940Z,20.87
2022-11-01T02:44:53.329Z,20.86
2022-11-01T02:45:24.718Z,20.84
2022-11-01T02:45:56.101Z,20.84
2022-11-01T02:46:27.594Z,20.83
2022-11-01T02:46:58.987Z,20.84
2022-11-01T02:47:30.376Z,20.83
2022-11-01T02:48:01.776Z,20.85
2022-11-01T02:48:33.158Z,20.84
2022-11-01T02:49:04.558Z,20.83
2022-11-01T02:49:35.942Z,20.83
2022-11-01T02:50:07.321Z,20.83
2022-11-01T02:50:38.708Z,20.83
2022-11-01T02:51:10.096Z,20.82
2022-11-01T02:51:41.547Z,20.83
2022-11-01T02:52:12.931Z,20.82
2022-11-01T02:52:44.327Z,20.80
2022-11-01T02:53:15.711Z,20.80
2022-11-01T02:53:47.112Z,20.82
2022-11-01T02:54:18.496Z,20.79
2022-11-01T02:54:49.908Z,20.80
2022-11-01T02:55:21.295Z,20.79
2022-11-01T02:55:52.696Z,20.80
2022-11-01T02:56:24.104Z,20.79
2022-11-01T02:56:55.548Z,20.79
2022-11-01T02:57:26.937Z,20.79
2022-11-01T02:57:58.483Z,20.79
2022-11-01T02:58:29.999Z,20.79
2022-11-01T02:59:01.391Z,20.78
2022-11-01T02:59:32.794Z,20.79
2022-11-01T03:00:04.203Z,20.77
2022-11-01T03:00:35.606Z,20.78
2022-11-01T03:01:07.027Z,20.78
2022-11-01T03:01:38.650Z,20.78
2022-11-01T03:02:10.250Z,20.77
2022-11-01T03:02:41.762Z,20.77
2022-11-01T03:03:13.153Z,20.77
2022-11-01T03:03:44.538Z,20.74
2022-11-01T03:04:15.954Z,20.76
2022-11-01T03:04:47.350Z,20.76
2022-11-01T03:05:18.729Z,20.74
2022-11-01T03:05:50.120Z,20.74
2022-11-01T03:06:21.502Z,20.74
2022-11-01T03:06:52.918Z,20.73
2022-11-01T03:07:24.451Z,20.74
2022-11-01T03:07:55.833Z,20.75
2022-11-01T03:08:27.226Z,20.74
2022-11-01T03:08:58.613Z,20.73
2022-11-01T03:09:30.031Z,20.73
2022-11-01T03:10:01.423Z,20.74
2022-11-01T03:10:32.977Z,20.74
2022-11-01T03:11:04.366Z,20.73
2022-11-01T03:11:35.757Z,20.74
2022-11-01T03:12:07.158Z,20.74
2022-11-01T03:12:38.607Z,20.73
2022-11-01T03:13:10.132Z,20.72
2022-11-01T03:13:41.535Z,20.71
2022-11-01T03:14:12.979Z,20.72
2022-11-01T03:14:44.366Z,20.72
2022-11-01T03:15:15.752Z,20.72
2022-11-01T03:15:47.157Z,20.71
2022-11-01T03:16:18.546Z,20.71
2022-11-01T03:16:49.938Z,20.71
2022-11-01T03:17:21.332Z,20.70
2022-11-01T03:17:52.773Z,20.71
2022-11-01T03:18:24.159Z,20.71
2022-11-01T03:18:55.545Z,20.72
2022-11-01T03:19:27.013Z,20.71
2022-11-01T03:19:58.403Z,20.71
2022-11-01T03:20:29.807Z,20.71
2022-11-01T03:21:01.194Z,20.72
2022-11-01T03:21:32.584Z,20.70
2022-11-01T03:22:03.972Z,20.69
2022-11-01T03:22:35.376Z,20.69
2022-11-01T03:23:06.808Z,20.68
2022-11-01T03:23:38.195Z,20.69
2022-11-01T03:24:09.582Z,20.68
2022-11-01T03:24:40.979Z,20.68
2022-11-01T03:25:12.375Z,20.68
2022-11-01T03:25:43.763Z,20.68
2022-11-01T03:26:15.157Z,20.66
2022-11-01T03:26:46.547Z,20.67
2022-11-01T03:27:17.931Z,20.66
2022-11-01T03:27:49.319Z,20.66
2022-11-01T03:28:20.791Z,20.65
2022-11-01T03:28:52.266Z,20.65
2022-11-01T03:29:23.732Z,20.65
2022-11-01T03:29:55.141Z,20.65
2022-11-01T03:30:26.864Z,20.65
2022-11-01T03:30:58.249Z,20.64
2022-11-01T03:31:29.635Z,20.63
2022-11-01T03:32:01.021Z,20.64
2022-11-01T03:32:32.403Z,20.63
2022-11-01T03:33:04.112Z,20.63
2022-11-01T03:33:35.755Z,20.63
2022-11-01T03:34:07.145Z,20.64
2022-11-01T03:34:38.627Z,20.63
2022-11-01T03:35:10.016Z,20.63
2022-11-01T03:35:41.408Z,20.62
2022-11-01T03:36:14.700Z,20.62
2022-11-01T03:36:46.458Z,20.62
2022-11-01T03:37:17.846Z,20.63
2022-11-01T03:37:49.231Z,20.62
2022-11-01T03:38:20.614Z,20.62
2022-11-01T03:38:52.034Z,20.63
2022-11-01T03:39:23.428Z,20.62
2022-11-01T03:39:54.817Z,20.62
2022-11-01T03:40:26.211Z,20.62
2022-11-01T03:40:57.599Z,20.61
2022-11-01T03:41:29.008Z,20.61
2022-11-01T03:42:00.407Z,20.61
2022-11-01T03:42:31.798Z,20.61
2022-11-01T03:43:03.526Z,20.60
2022-11-01T03:43:35.259Z,20.60
2022-11-01T03:44:06.759Z,20.60
2022-11-01T03:44:38.143Z,20.58
2022-11-01T03:45:09.641Z,20.60
2022-11-01T03:45:41.106Z,20.59
2022-11-01T03:46:12.619Z,20.59
2022-11-01T03:46:44.066Z,20.58
2022-11-01T03:47:15.459Z,20.58
2022-11-01T03:47:46.855Z,20.57
2022-11-01T03:48:18.248Z,20.56
2022-11-01T03:48:49.634Z,20.57
2022-11-01T03:49:21.355Z,20.57
2022-11-01T03:49:52.743Z,20.57
2022-11-01T03:50:24.154Z,20.57
2022-11-01T03:50:55.566Z,20.57
2022-11-01T03:51:26.978Z,20.56
2022-11-01T03:51:58.376Z,20.56
2022-11-01T03:52:29.791Z,20.55
2022-11-01T03:53:01.184Z,20.55
2022-11-01T03:53:32.577Z,20.55
2022-11-01T03:54:04.012Z,20.54
2022-11-01T03:54:35.512Z,20.55
2022-11-01T03:55:06.962Z,20.55
2022-11-01T03:55:38.393Z,20.54
2022-11-01T03:56:09.807Z,20.54
2022-11-01T03:56:41.306Z,20.54
2022-11-01T03:57:12.822Z,20.53
2022-11-01T03:57:44.339Z,20.54
2022-11-01T03:58:15.723Z,20.54
2022-11-01T03:58:47.119Z,20.53
2022-11-01T03:59:18.502Z,20.53
2022-11-01T03:59:49.974Z,20.53
2022-11-01T04:00:21.372Z,20.53
2022-11-01T04:00:52.821Z,20.53
2022-11-01T04:01:24.358Z,20.51
2022-11-01T04:01:55.946Z,20.53
2022-11-01T04:02:27.479Z,20.54
2022-11-01T04:02:58.979Z,20.52
2022-11-01T04:03:30.438Z,20.52
2022-11-01T04:04:01.827Z,20.52
2022-11-01T04:04:33.320Z,20.52
2022-11-01T04:05:04.839Z,20.51
2022-11-01T04:05:36.254Z,20.51
2022-11-01T04:06:07.668Z,20.51
2022-11-01T04:06:39.064Z,20.50
2022-11-01T04:07:10.470Z,20.51
2022-11-01T04:07:41.854Z,20.51
2022-11-01T04:08:13.239Z,20.50
2022-11-01T04:08:44.648Z,20.49
2022-11-01T04:09:16.035Z,20.50
2022-11-01T04:09:47.425Z,20.50
2022-11-01T04:10:18.894Z,20.50
2022-11-01T04:10:50.283Z,20.50
2022-11-01T04:11:21.681Z,20.49
2022-11-01T04:11:53.088Z,20.49
2022-11-01T04:12:24.483Z,20.50
2022-11-01T04:12:55.892Z,20.48
2022-11-01T04:13:27.286Z,20.49
2022-11-01T04:13:58.686Z,20.48
2022-11-01T04:14:30.080Z,20.49
2022-11-01T04:15:01.460Z,20.48
2022-11-01T04:15:32.962Z,20.48
2022-11-01T04:16:04.351Z,20.47
2022-11-01T04:16:35.764Z,20.47
2022-11-01T04:17:07.151Z,20.47
2022-11-01T04:17:38.606Z,20.47
2022-11-01T04:18:10.007Z,20.46
2022-11-01T04:18:41.400Z,20.46
2022-11-01T04:19:12.818Z,20.45
2022-11-01T04:19:44.201Z,20.45
2022-11-01T04:20:15.605Z,20.45
2022-11-01T04:20:47.138Z,20.45
2022-11-01T04:21:18.542Z,20.44
2022-11-01T04:21:49.951Z,20.45
2022-11-01T04:22:23.726Z,20.45
2022-11-01T04:22:56.148Z,20.44
2022-11-01T04:23:27.539Z,20.44
2022-11-01T04:23:58.926Z,20.44
2022-11-01T04:24:30.339Z,20.44
2022-11-01T04:25:01.735Z,20.44
2022-11-01T04:25:33.127Z,20.43
2022-11-01T04:26:04.796Z,20.45
2022-11-01T04:26:36.182Z,20.44
2022-11-01T04:27:07.571Z,20.43
2022-11-01T04:27:38.954Z,20.43
2022-11-01T04:28:10.346Z,20.41
2022-11-01T04:28:41.756Z,20.42
2022-11-01T04:29:13.138Z,20.41
2022-11-01T04:29:44.524Z,20.41
2022-11-01T04:30:15.902Z,20.41
2022-11-01T04:30:47.293Z,20.41
2022-11-01T04:31:18.742Z,20.40
2022-11-01T04:31:50.151Z,20.40
2022-11-01T04:32:21.539Z,20.40
2022-11-01T04:32:52.934Z,20.40
2022-11-01T04:33:24.317Z,20.40
2022-11-01T04:33:55.726Z,20.40
2022-11-01T04:34:27.135Z,20.40
2022-11-01T04:34:58.547Z,20.41
2022-11-01T04:35:29.939Z,20.40
2022-11-01T04:36:01.322Z,20.40
2022-11-01T04:36:32.740Z,20.39
2022-11-01T04:37:04.125Z,20.40
2022-11-01T04:37:35.503Z,20.40
2022-11-01T04:38:07.057Z,20.39
2022-11-01T04:38:38.492Z,20.39
2022-11-01T04:39:09.885Z,20.38
2022-11-01T04:39:41.280Z,20.38
2022-11-01T04:40:12.662Z,20.38
2022-11-01T04:40:44.059Z,20.38
2022-11-01T04:41:15.457Z,20.37
2022-11-01T04:41:46.842Z,20.37
2022-11-01T04:42:18.242Z,20.37
2022-11-01T04:42:49.641Z,20.36
2022-11-01T04:43:21.038Z,20.36
2022-11-01T04:43:52.422Z,20.36
2022-11-01T04:44:23.814Z,20.37
2022-11-01T04:44:55.218Z,20.36
2022-11-01T04:45:26.604Z,20.35
2022-11-01T04:45:58.003Z,20.35
2022-11-01T04:46:29.467Z,20.34
2022-11-01T04:47:00.879Z,20.35
2022-11-01T04:47:32.327Z,20.35
2022-11-01T04:48:04.118Z,20.35
2022-11-01T04:48:35.791Z,20.35
2022-11-01T04:49:07.180Z,20.35
2022-11-01T04:49:38.567Z,20.34
2022-11-01T04:50:09.967Z,20.33
2022-11-01T04:50:41.364Z,20.34
2022-11-01T04:51:12.826Z,20.33
2022-11-01T04:51:44.346Z,20.32
2022-11-01T04:52:15.751Z,20.33
2022-11-01T04:52:47.150Z,20.33
2022-11-01T04:53:18.562Z,20.32
2022-11-01T04:53:49.952Z,20.33
2022-11-01T04:54:21.339Z,20.32
2022-11-01T04:54:52.717Z,20.32
2022-11-01T04:55:24.110Z,20.31
2022-11-01T04:55:55.499Z,20.31
2022-11-01T04:56:26.905Z,20.31
2022-11-01T04:56:58.331Z,20.32
2022-11-01T04:57:29.709Z,20.31
2022-11-01T04:58:01.119Z,20.31
2022-11-01T04:58:32.524Z,20.31
2022-11-01T04:59:03.930Z,20.30
2022-11-01T04:59:35.339Z,20.31
2022-11-01T05:00:06.745Z,20.31
2022-11-01T05:00:38.190Z,20.30
2022-11-01T05:01:09.735Z,20.30
2022-11-01T05:01:41.392Z,20.30
2022-11-01T05:02:12.916Z,20.30
2022-11-01T05:02:44.330Z,20.30
2022-11-01T05:03:15.740Z,20.29
2022-11-01T05:03:47.152Z,20.29
2022-11-01T05:04:18.542Z,20.29
2022-11-01T05:04:49.941Z,20.30
2022-11-01T05:05:21.322Z,20.28
2022-11-01T05:05:52.701Z,20.28
2022-11-01T05:06:24.089Z,20.28
2022-11-01T05:06:55.530Z,20.28
2022-11-01T05:07:27.040Z,20.28
2022-11-01T05:07:58.466Z,20.28
2022-11-01T05:08:29.907Z,20.27
2022-11-01T05:09:01.295Z,20.27
2022-11-01T05:09:32.687Z,20.27
2022-11-01T05:10:04.069Z,20.26
2022-11-01T05:10:35.473Z,20.27
2022-11-01T05:11:06.854Z,20.26
2022-11-01T05:11:38.258Z,20.26
2022-11-01T05:12:09.638Z,20.26
2022-11-01T05:12:41.081Z,20.26
2022-11-01T05:13:12.467Z,20.27
2022-11-01T05:13:43.854Z,20.25
2022-11-01T05:14:15.254Z,20.26
2022-11-01T05:14:46.661Z,20.24
2022-11-01T05:15:18.061Z,20.24
2022-11-01T05:16:06.677Z,20.23
2022-11-01T05:16:40.822Z,20.22
2022-11-01T05:17:12.211Z,20.22
2022-11-01T05:17:43.699Z,20.23
2022-11-01T05:18:15.109Z,20.21
2022-11-01T05:18:46.502Z,20.22
2022-11-01T05:19:17.891Z,20.21
2022-11-01T05:19:49.301Z,20.21
2022-11-01T05:20:20.687Z,20.22
2022-11-01T05:20:52.077Z,20.21
2022-11-01T05:21:23.487Z,20.20
2022-11-01T05:21:54.890Z,20.20
2022-11-01T05:22:26.279Z,20.21
2022-11-01T05:22:57.746Z,20.21
2022-11-01T05:23:29.135Z,20.20
2022-11-01T05:24:00.542Z,20.20
2022-11-01T05:24:31.989Z,20.20
2022-11-01T05:25:03.414Z,20.20
2022-11-01T05:25:37.922Z,20.20
2022-11-01T05:26:09.834Z,20.19
2022-11-01T05:26:41.271Z,20.19
2022-11-01T05:27:12.743Z,20.19
2022-11-01T05:27:44.131Z,20.19
2022-11-01T05:28:15.593Z,20.19
2022-11-01T05:28:47.109Z,20.17
2022-11-01T05:29:24.674Z,20.18
2022-11-01T05:30:02.729Z,20.18
2022-11-01T05:30:34.120Z,20.18
2022-11-01T05:31:05.510Z,20.17
2022-11-01T05:31:36.923Z,20.17
2022-11-01T05:32:08.310Z,20.17
2022-11-01T05:32:39.717Z,20.17
2022-11-01T05:33:11.107Z,20.18
2022-11-01T05:33:42.558Z,20.17
2022-11-01T05:34:13.943Z,20.18
2022-11-01T05:34:45.345Z,20.16
2022-11-01T05:35:16.743Z,20.16
2022-11-01T05:35:48.211Z,20.16
2022-11-01T05:36:19.652Z,20.16
2022-11-01T05:36:51.054Z,20.16
2022-11-01T05:37:27.085Z,20.16
2022-11-01T05:37:59.520Z,20.15
2022-11-01T05:38:31.064Z,20.16
2022-11-01T05:39:02.565Z,20.15
2022-11-01T05:39:34.008Z,20.14
2022-11-01T05:40:05.410Z,20.16
2022-11-01T05:40:36.805Z,20.13
2022-11-01T05:41:08.242Z,20.13
2022-11-01T05:41:39.779Z,20.15
2022-11-01T05:42:11.163Z,20.12
2022-11-01T05:42:42.567Z,20.14
2022-11-01T05:43:13.960Z,20.13
2022-11-01T05:43:45.404Z,20.13
2022-11-01T05:44:16.790Z,20.13
2022-11-01T05:44:48.202Z,20.13
2022-11-01T05:45:19.602Z,20.13
2022-11-01T05:45:50.986Z,20.12
2022-11-01T05:46:22.404Z,20.12
2022-11-01T05:46:53.796Z,20.12
2022-11-01T05:47:25.187Z,20.12
2022-11-01T05:47:56.575Z,20.12
2022-11-01T05:48:28.116Z,20.11
2022-11-01T05:48:59.731Z,20.11
2022-11-01T05:49:31.134Z,20.12
2022-11-01T05:50:02.546Z,20.11
2022-11-01T05:50:33.936Z,20.11
2022-11-01T05:51:05.345Z,20.11
2022-11-01T05:51:36.739Z,20.11
2022-11-01T05:52:08.138Z,20.11
2022-11-01T05:52:39.542Z,20.10
2022-11-01T05:53:10.956Z,20.09
2022-11-01T05:53:42.358Z,20.10
2022-11-01T05:54:13.917Z,20.10
2022-11-01T05:54:45.307Z,20.10
2022-11-01T05:55:16.699Z,20.10
2022-11-01T05:55:48.092Z,20.08
2022-11-01T05:56:19.475Z,20.09
2022-11-01T05:56:50.859Z,20.09
2022-11-01T05:57:22.267Z,20.10
2022-11-01T05:57:53.667Z,20.08
2022-11-01T05:58:28.033Z,20.08
2022-11-01T05:59:02.087Z,20.08
2022-11-01T05:59:33.623Z,20.08
2022-11-01T06:00:05.018Z,20.08
2022-11-01T06:00:36.414Z,20.07
2022-11-01T06:01:07.895Z,20.07
2022-11-01T06:01:39.321Z,20.08
2022-11-01T06:02:10.779Z,20.07
2022-11-01T06:02:42.363Z,20.07
2022-11-01T06:03:13.801Z,20.07
2022-11-01T06:03:45.181Z,20.06
2022-11-01T06:04:16.590Z,20.07
2022-11-01T06:04:48.074Z,20.07
2022-11-01T06:05:19.464Z,20.06
2022-11-01T06:05:50.870Z,20.06
2022-11-01T06:06:22.262Z,20.06
2022-11-01T06:06:53.650Z,20.06
2022-11-01T06:07:25.035Z,20.06
2022-11-01T06:07:56.418Z,20.06
2022-11-01T06:08:27.874Z,20.05
2022-11-01T06:08:59.267Z,20.05
2022-11-01T06:09:30.655Z,20.05
2022-11-01T06:10:02.082Z,20.05
2022-11-01T06:10:33.479Z,20.04
2022-11-01T06:11:04.865Z,20.05
2022-11-01T06:11:41.373Z,20.04
2022-11-01T06:12:13.109Z,20.04
2022-11-01T06:12:44.494Z,20.04
2022-11-01T06:13:15.902Z,20.04
2022-11-01T06:13:47.290Z,20.04
2022-11-01T06:14:18.690Z,20.04
2022-11-01T06:14:50.094Z,20.04
2022-11-01T06:15:21.622Z,20.04
2022-11-01T06:15:53.012Z,20.04
2022-11-01T06:16:24.417Z,20.04
2022-11-01T06:16:55.804Z,20.04
2022-11-01T06:17:27.198Z,20.03
2022-11-01T06:17:58.633Z,20.02
2022-11-01T06:18:30.040Z,20.03
2022-11-01T06:19:01.519Z,20.04
2022-11-01T06:19:32.907Z,20.03
2022-11-01T06:20:04.299Z,20.03
2022-11-01T06:20:35.778Z,20.03
2022-11-01T06:21:07.171Z,20.03
2022-11-01T06:21:38.553Z,20.03
2022-11-01T06:22:09.935Z,20.03
2022-11-01T06:22:41.325Z,20.02
2022-11-01T06:23:12.715Z,20.03
2022-11-01T06:23:44.099Z,20.03
2022-11-01T06:24:15.509Z,20.03
2022-11-01T06:24:46.895Z,20.02
2022-11-01T06:25:18.281Z,20.02
2022-11-01T06:25:49.739Z,20.01
2022-11-01T06:26:21.145Z,20.01
2022-11-01T06:26:52.547Z,20.03
2022-11-01T06:27:24.070Z,20.02
2022-11-01T06:27:55.456Z,20.02
2022-11-01T06:28:26.839Z,20.02
2022-11-01T06:28:58.227Z,20.02
2022-11-01T06:29:29.699Z,20.02
2022-11-01T06:30:01.092Z,20.02
2022-11-01T06:30:32.484Z,20.02
2022-11-01T06:31:40.287Z,20.01
2022-11-01T06:32:11.673Z,20.02
2022-11-01T06:32:43.073Z,20.01
2022-11-01T06:33:14.466Z,20.01
2022-11-01T06:33:45.874Z,20.01
2022-11-01T06:34:17.261Z,20.01
2022-11-01T06:34:48.655Z,20.01
2022-11-01T06:35:20.047Z,20.00
2022-11-01T06:35:51.433Z,20.02
2022-11-01T06:36:22.892Z,20.01
2022-11-01T06:36:54.282Z,20.01
2022-11-01T06:37:25.666Z,20.01
2022-11-01T06:37:57.060Z,20.02
2022-11-01T06:38:28.451Z,20.01
2022-11-01T06:38:59.859Z,20.00
2022-11-01T06:39:31.247Z,20.01
2022-11-01T06:40:02.659Z,20.01
2022-11-01T06:40:34.062Z,20.01
2022-11-01T06:41:05.446Z,19.99
2022-11-01T06:41:36.934Z,20.00
2022-11-01T06:42:08.318Z,20.01
2022-11-01T06:42:45.378Z,20.01
2022-11-01T06:43:18.250Z,20.00
2022-11-01T06:43:49.648Z,20.00
2022-11-01T06:44:21.035Z,20.00
2022-11-01T06:44:52.432Z,20.00
2022-11-01T06:45:23.838Z,20.01
2022-11-01T06:45:55.226Z,20.00
2022-11-01T06:46:26.624Z,20.00
2022-11-01T06:46:58.083Z,20.01